Time;durP1;ratioP1;P1;durP2;ratioP2;P2;SDS_P1;SDS_P2;PMS_P1;PMS_P2;Temp;Humidity;BMP_temperature;BMP_pressure;BME280_temperature;BME280_humidity;BME280_pressure;Samples;Min_cycle;Max_cycle;Signal;HPM_P1;HPM_P2
2021/12/26 00:00:11;;;;;;;;;;;22.60;44.50;;;;;;678529;29;1197;-89
2021/12/26 00:00:34;;;;;;;;;;;22.60;44.40;;;;;;678995;29;1493;-89
2021/12/26 00:00:56;;;;;;;;;;;22.60;44.50;;;;;;679326;29;1107;-88
2021/12/26 00:01:19;;;;;;;;;;;22.60;44.40;;;;;;681377;29;1036;-88
2021/12/26 00:01:41;;;;;;;;;;;22.50;44.40;;;;;;682630;29;871;-89
2021/12/26 00:02:01;;;;;;;;;;;22.60;44.40;;;;;;685284;28;1316;-91
2021/12/26 00:02:23;;;;;;;;;;;22.60;44.40;;;;;;683686;28;1315;-88
2021/12/26 00:02:44;;;;;;;;;;;22.60;44.50;;;;;;683833;28;1283;-89
2021/12/26 00:03:05;;;;;;;;;;;22.60;44.50;;;;;;683911;28;1422;-89
2021/12/26 00:03:27;;;;;;;;;;;22.50;44.40;;;;;;681226;29;1430;-89
2021/12/26 00:03:48;;;;;;;;;;;22.60;44.50;;;;;;681339;29;1216;-88
2021/12/26 00:04:13;;;;;;;;;;;22.60;44.50;;;;;;681659;29;1111;-88
2021/12/26 00:04:34;;;;;;;;;;;22.60;44.40;;;;;;682973;29;1364;-88
2021/12/26 00:04:55;;;;;;;;;;;22.60;44.30;;;;;;684256;29;816;-88
2021/12/26 00:05:15;;;;;;;;;;;22.50;44.30;;;;;;685707;28;946;-88
2021/12/26 00:05:36;;;;;;;;;;;22.60;44.40;;;;;;687654;28;946;-88
2021/12/26 00:06:00;;;;;;;;;;;22.60;44.40;;;;;;686590;28;1358;-87
2021/12/26 00:06:22;;;;;;;;;;;22.60;44.40;;;;;;684510;28;1391;-88
2021/12/26 00:06:44;;;;;;;;;;;22.50;44.40;;;;;;684664;29;1317;-88
2021/12/26 00:07:05;;;;;;;;;;;22.60;44.40;;;;;;683950;29;854;-86
2021/12/26 00:07:25;;;;;;;;;;;22.60;44.40;;;;;;684128;29;1252;-88
2021/12/26 00:07:47;;;;;;;;;;;22.50;44.30;;;;;;684212;29;1021;-88
2021/12/26 00:08:07;;;;;;;;;;;22.60;44.50;;;;;;685118;28;1072;-88
2021/12/26 00:08:28;;;;;;;;;;;22.50;44.50;;;;;;686859;28;1390;-88
2021/12/26 00:08:49;;;;;;;;;;;22.50;44.60;;;;;;686803;28;1221;-88
2021/12/26 00:09:10;;;;;;;;;;;22.50;44.70;;;;;;684064;29;1304;-88
2021/12/26 00:09:30;;;;;;;;;;;22.60;44.70;;;;;;681360;29;1354;-84
2021/12/26 00:09:51;;;;;;;;;;;22.50;44.70;;;;;;679194;29;1230;-86
2021/12/26 00:10:13;;;;;;;;;;;22.60;44.60;;;;;;679877;29;961;-87
2021/12/26 00:10:33;;;;;;;;;;;22.60;44.50;;;;;;682379;29;1369;-88
2021/12/26 00:10:54;;;;;;;;;;;22.50;44.50;;;;;;684918;28;958;-88
2021/12/26 00:11:15;;;;;;;;;;;22.60;44.60;;;;;;684554;28;1291;-88
2021/12/26 00:11:36;;;;;;;;;;;22.60;44.60;;;;;;685168;28;1255;-88
2021/12/26 00:11:58;;;;;;;;;;;22.60;44.50;;;;;;687089;28;1164;-88
2021/12/26 00:12:18;;;;;;;;;;;22.50;44.50;;;;;;686895;28;906;-87
2021/12/26 00:12:39;;;;;;;;;;;22.60;44.50;;;;;;686658;28;1152;-87
2021/12/26 00:13:01;;;;;;;;;;;22.60;44.50;;;;;;686768;28;1310;-88
2021/12/26 00:13:22;;;;;;;;;;;22.60;44.50;;;;;;686966;28;1260;-86
2021/12/26 00:13:43;;;;;;;;;;;22.60;44.40;;;;;;684509;28;1201;-87
2021/12/26 00:14:05;;;;;;;;;;;22.60;44.40;;;;;;684437;28;1205;-87
2021/12/26 00:14:26;;;;;;;;;;;22.60;44.50;;;;;;681797;28;1355;-88
2021/12/26 00:14:47;;;;;;;;;;;22.60;44.40;;;;;;681838;29;1337;-86
2021/12/26 00:15:08;;;;;;;;;;;22.60;44.40;;;;;;681338;29;1229;-86
2021/12/26 00:15:29;;;;;;;;;;;22.60;44.50;;;;;;678565;29;1337;-88
2021/12/26 00:15:50;;;;;;;;;;;22.60;44.30;;;;;;679151;29;1110;-88
2021/12/26 00:16:13;;;;;;;;;;;22.60;44.30;;;;;;683762;29;1261;-84
2021/12/26 00:16:33;;;;;;;;;;;22.60;44.40;;;;;;681498;29;1442;-86
2021/12/26 00:16:54;;;;;;;;;;;22.60;44.30;;;;;;681544;29;1221;-83
2021/12/26 00:17:14;;;;;;;;;;;22.60;44.30;;;;;;684281;28;1379;-89
2021/12/26 00:17:39;;;;;;;;;;;22.70;44.30;;;;;;686122;28;1360;-84
2021/12/26 00:18:00;;;;;;;;;;;22.60;44.30;;;;;;685003;28;1347;-87
2021/12/26 00:18:20;;;;;;;;;;;22.60;44.20;;;;;;683566;28;1319;-88
2021/12/26 00:18:44;;;;;;;;;;;22.60;44.30;;;;;;686225;28;1396;-88
2021/12/26 00:19:05;;;;;;;;;;;22.60;44.20;;;;;;686545;28;1359;-87
2021/12/26 00:19:25;;;;;;;;;;;22.60;44.20;;;;;;686206;28;1265;-85
2021/12/26 00:19:47;;;;;;;;;;;22.60;44.10;;;;;;683828;29;1212;-88
2021/12/26 00:20:08;;;;;;;;;;;22.60;44.20;;;;;;683862;28;1410;-88
2021/12/26 00:20:29;;;;;;;;;;;22.60;44.20;;;;;;680879;29;1154;-89
2021/12/26 00:20:50;;;;;;;;;;;22.70;44.40;;;;;;681921;29;867;-89
2021/12/26 00:21:11;;;;;;;;;;;22.60;44.30;;;;;;682439;29;1414;-91
2021/12/26 00:21:32;;;;;;;;;;;22.60;44.30;;;;;;686335;28;1239;-87
2021/12/26 00:21:53;;;;;;;;;;;22.60;44.10;;;;;;683763;28;1209;-89
2021/12/26 00:22:14;;;;;;;;;;;22.60;44.20;;;;;;683885;29;1214;-90
2021/12/26 00:22:35;;;;;;;;;;;22.60;44.10;;;;;;683657;29;1323;-87
2021/12/26 00:22:55;;;;;;;;;;;22.60;44.20;;;;;;679740;29;1400;-91
2021/12/26 00:23:17;;;;;;;;;;;22.60;44.30;;;;;;682978;29;823;-90
2021/12/26 00:23:37;;;;;;;;;;;22.60;44.10;;;;;;682593;29;1180;-88
2021/12/26 00:23:59;;;;;;;;;;;22.60;44.30;;;;;;684179;28;1208;-91
2021/12/26 00:24:19;;;;;;;;;;;22.60;44.20;;;;;;681826;29;1206;-88
2021/12/26 00:24:43;;;;;;;;;;;22.60;44.30;;;;;;682406;29;1217;-91
2021/12/26 00:25:04;;;;;;;;;;;22.60;44.30;;;;;;681916;29;1397;-88
2021/12/26 00:25:25;;;;;;;;;;;22.60;44.20;;;;;;681591;29;1153;-92
2021/12/26 00:25:45;;;;;;;;;;;22.60;44.30;;;;;;681277;29;1379;-87
2021/12/26 00:26:06;;;;;;;;;;;22.60;44.40;;;;;;679186;29;1228;-88
2021/12/26 00:26:26;;;;;;;;;;;22.60;44.20;;;;;;684030;29;1221;-88
2021/12/26 00:26:47;;;;;;;;;;;22.60;44.10;;;;;;684476;28;1318;-94
2021/12/26 00:27:08;;;;;;;;;;;22.60;44.20;;;;;;684077;29;1119;-95
2021/12/26 00:27:29;;;;;;;;;;;22.60;44.20;;;;;;681012;29;1193;-93
2021/12/26 00:27:49;;;;;;;;;;;22.60;44.10;;;;;;678911;29;1343;-91
2021/12/26 00:28:11;;;;;;;;;;;22.60;44.20;;;;;;678112;29;1300;-90
2021/12/26 00:28:31;;;;;;;;;;;22.60;44.50;;;;;;676176;29;1238;-91
2021/12/26 00:28:52;;;;;;;;;;;22.60;44.30;;;;;;679201;29;1167;-93
2021/12/26 00:29:13;;;;;;;;;;;22.60;44.10;;;;;;683990;28;1481;-91
2021/12/26 00:29:34;;;;;;;;;;;22.60;44.30;;;;;;683937;28;1312;-94
2021/12/26 00:29:55;;;;;;;;;;;22.60;44.90;;;;;;683633;29;1193;-92
2021/12/26 00:30:18;;;;;;;;;;;22.60;44.60;;;;;;681063;29;1279;-95
2021/12/26 00:30:38;;;;;;;;;;;22.60;45.00;;;;;;679141;29;1348;-91
2021/12/26 00:30:59;;;;;;;;;;;22.60;45.30;;;;;;680150;29;1221;-90
2021/12/26 00:31:19;;;;;;;;;;;22.60;45.10;;;;;;678958;29;1247;-93
2021/12/26 00:31:40;;;;;;;;;;;22.60;45.40;;;;;;684259;28;1158;-90
2021/12/26 00:32:06;;;;;;;;;;;22.60;45.60;;;;;;683447;28;1269;-91
2021/12/26 00:32:26;;;;;;;;;;;22.60;45.90;;;;;;681717;29;1198;-87
2021/12/26 00:32:47;;;;;;;;;;;22.50;46.20;;;;;;684635;28;1225;-89
2021/12/26 00:33:08;;;;;;;;;;;22.60;46.40;;;;;;686013;28;1196;-89
2021/12/26 00:33:29;;;;;;;;;;;22.60;46.80;;;;;;685041;28;1421;-90
2021/12/26 00:33:50;;;;;;;;;;;22.60;45.90;;;;;;683488;28;1288;-92
2021/12/26 00:34:10;;;;;;;;;;;22.60;46.10;;;;;;683612;29;792;-93
2021/12/26 00:34:31;;;;;;;;;;;22.70;46.20;;;;;;683426;28;1176;-86
2021/12/26 00:34:51;;;;;;;;;;;22.60;46.10;;;;;;683513;29;1233;-89
2021/12/26 00:35:13;;;;;;;;;;;22.60;45.80;;;;;;683583;28;1354;-90
2021/12/26 00:35:34;;;;;;;;;;;22.70;46.00;;;;;;681372;28;1227;-91
2021/12/26 00:35:56;;;;;;;;;;;22.70;46.40;;;;;;686183;28;1323;-90
2021/12/26 00:36:17;;;;;;;;;;;22.70;46.40;;;;;;686006;28;1894;-90
2021/12/26 00:36:38;;;;;;;;;;;22.70;46.20;;;;;;686930;28;1221;-89
2021/12/26 00:36:58;;;;;;;;;;;22.70;45.80;;;;;;686895;28;1157;-89
2021/12/26 00:37:19;;;;;;;;;;;22.70;45.90;;;;;;686213;28;1275;-88
2021/12/26 00:37:40;;;;;;;;;;;22.70;45.80;;;;;;685882;28;1254;-92
2021/12/26 00:38:01;;;;;;;;;;;22.70;45.60;;;;;;683430;28;1286;-89
2021/12/26 00:38:21;;;;;;;;;;;21.80;45.40;;;;;;683616;29;902;-89
2021/12/26 00:38:42;;;;;;;;;;;22.70;45.90;;;;;;684033;28;1185;-90
2021/12/26 00:39:03;;;;;;;;;;;22.70;45.50;;;;;;686031;28;1388;-90
2021/12/26 00:39:23;;;;;;;;;;;22.70;45.60;;;;;;686292;28;1195;-91
2021/12/26 00:39:44;;;;;;;;;;;22.70;45.70;;;;;;686332;28;1209;-90
2021/12/26 00:40:05;;;;;;;;;;;22.70;45.60;;;;;;683449;29;1205;-91
2021/12/26 00:40:26;;;;;;;;;;;22.60;45.20;;;;;;686018;28;1223;-91
2021/12/26 00:40:47;;;;;;;;;;;22.70;45.20;;;;;;686223;28;1343;-91
2021/12/26 00:41:08;;;;;;;;;;;22.70;45.50;;;;;;686163;28;1165;-91
2021/12/26 00:41:28;;;;;;;;;;;22.70;45.40;;;;;;686166;28;1210;-91
2021/12/26 00:41:49;;;;;;;;;;;22.70;45.70;;;;;;686190;28;1240;-91
2021/12/26 00:42:09;;;;;;;;;;;22.60;45.40;;;;;;686041;28;1332;-92
2021/12/26 00:42:30;;;;;;;;;;;22.70;45.20;;;;;;680972;28;1311;-87
2021/12/26 00:42:51;;;;;;;;;;;22.70;45.30;;;;;;678620;29;1251;-91
2021/12/26 00:43:12;;;;;;;;;;;22.70;45.40;;;;;;678466;28;1325;-88
2021/12/26 00:43:32;;;;;;;;;;;22.80;45.60;;;;;;678542;29;1242;-91
2021/12/26 00:43:54;;;;;;;;;;;22.70;45.50;;;;;;678233;28;1320;-92
2021/12/26 00:44:15;;;;;;;;;;;22.60;45.40;;;;;;678765;28;1264;-91
2021/12/26 00:44:39;;;;;;;;;;;22.70;45.40;;;;;;677747;29;1445;-91
2021/12/26 00:45:00;;;;;;;;;;;22.70;45.90;;;;;;679207;28;1232;-90
2021/12/26 00:45:22;;;;;;;;;;;22.70;45.40;;;;;;681870;29;1451;-91
2021/12/26 00:45:42;;;;;;;;;;;22.70;45.10;;;;;;681959;29;1178;-90
2021/12/26 00:46:03;;;;;;;;;;;22.70;45.60;;;;;;684546;28;1315;-90
2021/12/26 00:46:24;;;;;;;;;;;22.70;45.50;;;;;;683479;28;1343;-90
2021/12/26 00:46:45;;;;;;;;;;;22.80;45.40;;;;;;683093;28;1328;-89
2021/12/26 00:47:07;;;;;;;;;;;22.70;45.40;;;;;;680829;29;1319;-89
2021/12/26 00:47:29;;;;;;;;;;;22.70;45.00;;;;;;681437;29;1396;-91
2021/12/26 00:47:50;;;;;;;;;;;22.70;45.10;;;;;;683504;28;1344;-93
2021/12/26 00:48:11;;;;;;;;;;;22.70;44.90;;;;;;683561;29;1272;-93
2021/12/26 00:48:31;;;;;;;;;;;22.70;45.10;;;;;;684371;28;910;-93
2021/12/26 00:48:52;;;;;;;;;;;22.70;45.20;;;;;;683361;28;1259;-89
2021/12/26 00:49:12;;;;;;;;;;;22.70;45.10;;;;;;686237;28;1323;-93
2021/12/26 00:49:33;;;;;;;;;;;22.70;45.50;;;;;;683696;28;1181;-90
2021/12/26 00:49:54;;;;;;;;;;;22.70;45.20;;;;;;683525;29;1202;-90
2021/12/26 00:50:16;;;;;;;;;;;22.70;45.20;;;;;;683823;28;1407;-93
2021/12/26 00:50:38;;;;;;;;;;;22.70;45.20;;;;;;684040;28;1253;-91
2021/12/26 00:50:59;;;;;;;;;;;22.80;45.50;;;;;;683442;28;1185;-92
2021/12/26 00:51:20;;;;;;;;;;;22.70;45.30;;;;;;681674;29;1257;-90
2021/12/26 00:51:42;;;;;;;;;;;22.10;45.40;;;;;;680956;29;1434;-92
2021/12/26 00:52:04;;;;;;;;;;;22.80;45.60;;;;;;683579;28;1197;-90
2021/12/26 00:52:25;;;;;;;;;;;22.70;45.20;;;;;;683505;29;1391;-93
2021/12/26 00:52:45;;;;;;;;;;;22.70;45.30;;;;;;684540;28;1468;-92
2021/12/26 00:53:06;;;;;;;;;;;22.70;45.20;;;;;;686674;28;823;-91
2021/12/26 00:53:28;;;;;;;;;;;22.70;45.50;;;;;;687342;28;1402;-92
2021/12/26 00:53:49;;;;;;;;;;;22.70;46.70;;;;;;688464;28;842;-92
2021/12/26 00:54:09;;;;;;;;;;;22.70;45.40;;;;;;683605;28;1172;-93
2021/12/26 00:54:30;;;;;;;;;;;22.70;45.50;;;;;;683491;28;1192;-91
2021/12/26 00:54:50;;;;;;;;;;;22.70;45.30;;;;;;686205;28;1248;-91
2021/12/26 00:55:12;;;;;;;;;;;22.70;45.30;;;;;;683975;28;898;-89
2021/12/26 00:55:33;;;;;;;;;;;22.70;45.60;;;;;;686312;28;1200;-93
2021/12/26 00:55:54;;;;;;;;;;;22.70;46.00;;;;;;686827;28;1310;-91
2021/12/26 00:56:15;;;;;;;;;;;22.70;45.30;;;;;;686244;28;1177;-90
2021/12/26 00:56:35;;;;;;;;;;;22.60;45.50;;;;;;685696;28;1315;-92
2021/12/26 00:56:56;;;;;;;;;;;22.70;45.90;;;;;;680953;29;1225;-90
2021/12/26 00:57:16;;;;;;;;;;;22.70;45.70;;;;;;680972;29;1310;-91
2021/12/26 00:57:37;;;;;;;;;;;22.70;45.50;;;;;;678889;29;1230;-93
2021/12/26 00:57:58;;;;;;;;;;;22.60;45.80;;;;;;678341;29;1230;-94
2021/12/26 00:58:18;;;;;;;;;;;22.70;45.40;;;;;;681553;29;1230;-91
2021/12/26 00:58:39;;;;;;;;;;;22.70;45.50;;;;;;684162;28;1462;-91
2021/12/26 00:59:00;;;;;;;;;;;22.60;45.70;;;;;;686446;28;1315;-90
2021/12/26 00:59:20;;;;;;;;;;;22.60;45.80;;;;;;683970;28;1418;-91
2021/12/26 00:59:41;;;;;;;;;;;22.70;45.60;;;;;;683786;28;1204;-94
2021/12/26 01:00:03;;;;;;;;;;;22.70;45.20;;;;;;683528;29;1339;-89
2021/12/26 01:00:29;;;;;;;;;;;22.70;45.00;;;;;;680749;29;1336;-94
2021/12/26 01:00:50;;;;;;;;;;;22.60;44.80;;;;;;682281;29;1143;-90
2021/12/26 01:01:10;;;;;;;;;;;22.70;45.00;;;;;;681828;29;1284;-87
2021/12/26 01:01:31;;;;;;;;;;;22.70;45.20;;;;;;682048;29;1217;-84
2021/12/26 01:01:52;;;;;;;;;;;22.70;46.10;;;;;;683529;29;879;-84
2021/12/26 01:02:13;;;;;;;;;;;22.70;45.10;;;;;;683508;29;946;-84
2021/12/26 01:02:34;;;;;;;;;;;22.70;45.20;;;;;;681106;29;1284;-84
2021/12/26 01:02:55;;;;;;;;;;;22.70;44.90;;;;;;681048;29;1190;-84
2021/12/26 01:03:17;;;;;;;;;;;22.70;44.80;;;;;;686117;28;1276;-86
2021/12/26 01:03:38;;;;;;;;;;;22.70;44.90;;;;;;685943;28;898;-85
2021/12/26 01:03:58;;;;;;;;;;;22.70;45.00;;;;;;686063;28;834;-83
2021/12/26 01:04:19;;;;;;;;;;;22.60;45.40;;;;;;686777;28;787;-88
2021/12/26 01:04:40;;;;;;;;;;;22.60;44.80;;;;;;688789;28;1218;-84
2021/12/26 01:05:01;;;;;;;;;;;22.60;45.60;;;;;;685474;28;1240;-84
2021/12/26 01:05:22;;;;;;;;;;;22.60;45.70;;;;;;680780;29;1253;-86
2021/12/26 01:05:46;;;;;;;;;;;22.50;44.80;;;;;;680723;29;1228;-83
2021/12/26 01:06:06;;;;;;;;;;;22.60;44.90;;;;;;683468;28;1255;-86
2021/12/26 01:06:28;;;;;;;;;;;22.10;45.30;;;;;;684132;28;792;-86
2021/12/26 01:06:50;;;;;;;;;;;22.50;46.30;;;;;;686966;28;1162;-87
2021/12/26 01:07:24;;;;;;;;;;;22.60;44.80;;;;;;685990;28;1343;-84
2021/12/26 01:08:06;;;;;;;;;;;22.60;45.50;;;;;;683799;28;1409;-82
2021/12/26 01:08:30;;;;;;;;;;;22.60;45.10;;;;;;680700;29;1339;-84
2021/12/26 01:08:52;;;;;;;;;;;22.60;45.00;;;;;;685942;28;1366;-84
2021/12/26 01:09:18;;;;;;;;;;;22.60;44.80;;;;;;686168;28;1158;-84
2021/12/26 01:09:39;;;;;;;;;;;22.60;44.90;;;;;;686105;28;1196;-84
2021/12/26 01:09:59;;;;;;;;;;;22.60;44.70;;;;;;686063;28;1250;-84
2021/12/26 01:10:22;;;;;;;;;;;22.60;44.60;;;;;;687768;28;887;-85
2021/12/26 01:10:44;;;;;;;;;;;22.60;44.90;;;;;;684773;28;1200;-86
2021/12/26 01:11:16;;;;;;;;;;;22.60;44.90;;;;;;680662;28;997;-83
2021/12/26 01:11:41;;;;;;;;;;;22.60;45.00;;;;;;678093;29;1284;-85
2021/12/26 01:12:11;;;;;;;;;;;22.60;45.60;;;;;;680749;29;1300;-83
2021/12/26 01:12:32;;;;;;;;;;;22.60;44.80;;;;;;679548;29;1197;-83
2021/12/26 01:12:54;;;;;;;;;;;22.60;44.90;;;;;;679317;29;1410;-86
2021/12/26 01:13:21;;;;;;;;;;;22.60;44.90;;;;;;678344;29;1224;-83
2021/12/26 01:13:44;;;;;;;;;;;22.60;45.00;;;;;;680930;29;1370;-83
2021/12/26 01:14:06;;;;;;;;;;;22.60;44.70;;;;;;680974;29;1316;-84
2021/12/26 01:14:30;;;;;;;;;;;22.60;44.80;;;;;;681022;29;1352;-88
2021/12/26 01:14:57;;;;;;;;;;;22.60;44.90;;;;;;683138;29;812;-83
2021/12/26 01:15:19;;;;;;;;;;;22.60;45.60;;;;;;686289;28;1429;-84
2021/12/26 01:15:40;;;;;;;;;;;22.60;44.90;;;;;;686429;28;1234;-86
2021/12/26 01:16:02;;;;;;;;;;;22.60;45.00;;;;;;681583;29;1241;-83
2021/12/26 01:16:24;;;;;;;;;;;22.60;45.40;;;;;;680924;29;1910;-83
2021/12/26 01:16:48;;;;;;;;;;;21.70;44.80;;;;;;681171;29;1189;-84
2021/12/26 01:17:14;;;;;;;;;;;22.60;45.00;;;;;;682259;29;1299;-83
2021/12/26 01:17:35;;;;;;;;;;;22.60;46.30;;;;;;682752;29;1362;-83
2021/12/26 01:17:57;;;;;;;;;;;22.50;45.00;;;;;;681041;29;1358;-84
2021/12/26 01:18:18;;;;;;;;;;;22.50;44.90;;;;;;681115;29;1411;-82
2021/12/26 01:18:42;;;;;;;;;;;22.60;45.30;;;;;;678275;29;1386;-90
2021/12/26 01:19:13;;;;;;;;;;;22.50;44.90;;;;;;678228;29;1226;-84
2021/12/26 01:19:43;;;;;;;;;;;22.50;44.90;;;;;;677766;29;1419;-85
2021/12/26 01:20:06;;;;;;;;;;;22.60;45.20;;;;;;678610;29;1348;-83
2021/12/26 01:20:51;;;;;;;;;;;22.60;44.80;;;;;;680622;29;1397;-84
2021/12/26 01:21:18;;;;;;;;;;;22.60;44.80;;;;;;680755;29;954;-83
2021/12/26 01:21:39;;;;;;;;;;;22.50;44.80;;;;;;683293;29;1375;-87
2021/12/26 01:21:59;;;;;;;;;;;22.60;44.80;;;;;;683337;28;812;-88
2021/12/26 01:22:22;;;;;;;;;;;22.50;45.50;;;;;;683245;29;1217;-84
2021/12/26 01:22:43;;;;;;;;;;;22.50;45.00;;;;;;683274;28;1145;-83
2021/12/26 01:23:04;;;;;;;;;;;22.50;45.00;;;;;;683306;28;1276;-83
2021/12/26 01:23:25;;;;;;;;;;;22.60;44.90;;;;;;683282;28;1177;-84
2021/12/26 01:23:47;;;;;;;;;;;22.60;45.00;;;;;;680645;28;1271;-87
2021/12/26 01:24:10;;;;;;;;;;;22.60;45.00;;;;;;681231;28;1327;-85
2021/12/26 01:24:34;;;;;;;;;;;22.50;44.90;;;;;;678303;29;1181;-93
2021/12/26 01:24:58;;;;;;;;;;;22.50;44.90;;;;;;679556;29;1281;-88
2021/12/26 01:25:19;;;;;;;;;;;22.50;44.90;;;;;;685204;28;1197;-91
2021/12/26 01:25:40;;;;;;;;;;;22.50;44.80;;;;;;684969;28;1197;-85
2021/12/26 01:26:00;;;;;;;;;;;22.50;44.90;;;;;;683292;29;1216;-86
2021/12/26 01:26:21;;;;;;;;;;;22.50;45.00;;;;;;683321;29;1190;-85
2021/12/26 01:26:42;;;;;;;;;;;22.60;45.00;;;;;;684167;28;1325;-84
2021/12/26 01:27:03;;;;;;;;;;;22.50;44.80;;;;;;682749;29;1340;-83
2021/12/26 01:27:24;;;;;;;;;;;22.50;45.20;;;;;;681114;29;1184;-84
2021/12/26 01:27:44;;;;;;;;;;;22.50;45.00;;;;;;683299;28;942;-86
2021/12/26 01:28:05;;;;;;;;;;;22.50;44.90;;;;;;683204;28;1387;-85
2021/12/26 01:28:28;;;;;;;;;;;22.50;44.90;;;;;;683403;28;1302;-84
2021/12/26 01:28:49;;;;;;;;;;;22.50;45.20;;;;;;686012;28;1296;-82
2021/12/26 01:29:09;;;;;;;;;;;22.50;45.70;;;;;;685972;28;1165;-88
2021/12/26 01:29:30;;;;;;;;;;;22.50;45.50;;;;;;688681;28;1310;-84
2021/12/26 01:29:51;;;;;;;;;;;22.50;45.30;;;;;;688646;28;1400;-86
2021/12/26 01:30:12;;;;;;;;;;;22.50;45.00;;;;;;686037;28;1196;-83
2021/12/26 01:30:33;;;;;;;;;;;22.50;44.90;;;;;;685878;28;1434;-84
2021/12/26 01:30:56;;;;;;;;;;;22.60;45.10;;;;;;685921;28;771;-84
2021/12/26 01:31:20;;;;;;;;;;;22.50;45.30;;;;;;682563;29;1176;-83
2021/12/26 01:31:41;;;;;;;;;;;22.50;45.00;;;;;;680954;29;1303;-84
2021/12/26 01:32:02;;;;;;;;;;;22.50;44.90;;;;;;681695;29;1232;-83
2021/12/26 01:32:23;;;;;;;;;;;22.50;44.90;;;;;;684410;28;1350;-84
2021/12/26 01:32:43;;;;;;;;;;;22.50;45.00;;;;;;683323;29;1371;-84
2021/12/26 01:33:08;;;;;;;;;;;22.50;45.30;;;;;;683357;28;1193;-85
2021/12/26 01:33:29;;;;;;;;;;;22.50;45.00;;;;;;680609;28;1195;-84
2021/12/26 01:33:51;;;;;;;;;;;22.50;45.20;;;;;;677966;29;1464;-88
2021/12/26 01:34:12;;;;;;;;;;;22.50;44.90;;;;;;679249;29;938;-83
2021/12/26 01:34:33;;;;;;;;;;;22.50;44.90;;;;;;680793;29;923;-83
2021/12/26 01:34:53;;;;;;;;;;;22.50;44.90;;;;;;681800;29;768;-84
2021/12/26 01:35:14;;;;;;;;;;;22.50;45.00;;;;;;686511;28;1324;-86
2021/12/26 01:35:35;;;;;;;;;;;22.50;45.10;;;;;;688582;28;1277;-84
2021/12/26 01:35:56;;;;;;;;;;;22.50;45.00;;;;;;688710;28;806;-85
2021/12/26 01:36:16;;;;;;;;;;;22.50;45.10;;;;;;685974;28;1232;-83
2021/12/26 01:36:37;;;;;;;;;;;22.50;45.40;;;;;;685870;28;1217;-84
2021/12/26 01:36:59;;;;;;;;;;;22.50;45.40;;;;;;685544;28;1193;-85
2021/12/26 01:37:20;;;;;;;;;;;22.40;45.00;;;;;;683252;29;972;-86
2021/12/26 01:37:40;;;;;;;;;;;22.50;45.00;;;;;;683326;28;1222;-83
2021/12/26 01:38:01;;;;;;;;;;;22.50;45.20;;;;;;683805;28;1329;-84
2021/12/26 01:38:23;;;;;;;;;;;22.50;45.10;;;;;;683268;29;1316;-85
2021/12/26 01:38:43;;;;;;;;;;;22.50;45.10;;;;;;683512;29;922;-84
2021/12/26 01:39:08;;;;;;;;;;;22.50;45.10;;;;;;683231;29;1170;-83
2021/12/26 01:39:28;;;;;;;;;;;22.50;45.10;;;;;;680611;29;1227;-84
2021/12/26 01:39:49;;;;;;;;;;;22.40;45.50;;;;;;684347;28;1328;-88
2021/12/26 01:40:10;;;;;;;;;;;22.50;45.30;;;;;;685987;28;1413;-88
2021/12/26 01:40:34;;;;;;;;;;;22.50;45.30;;;;;;686044;28;1093;-87
2021/12/26 01:40:57;;;;;;;;;;;22.50;45.30;;;;;;686068;28;1233;-91
2021/12/26 01:41:18;;;;;;;;;;;22.50;45.10;;;;;;681869;29;1441;-87
2021/12/26 01:41:42;;;;;;;;;;;22.40;45.20;;;;;;683611;29;1460;-86
2021/12/26 01:42:03;;;;;;;;;;;21.90;45.10;;;;;;681729;29;901;-84
2021/12/26 01:42:25;;;;;;;;;;;22.50;45.10;;;;;;683133;28;1525;-83
2021/12/26 01:42:46;;;;;;;;;;;22.50;45.10;;;;;;680763;29;1330;-81
2021/12/26 01:43:08;;;;;;;;;;;22.50;45.00;;;;;;680614;29;772;-81
2021/12/26 01:43:32;;;;;;;;;;;22.50;45.10;;;;;;681855;29;1357;-84
2021/12/26 01:43:57;;;;;;;;;;;22.50;45.10;;;;;;682428;29;938;-82
2021/12/26 01:44:18;;;;;;;;;;;22.50;45.10;;;;;;681782;29;906;-89
2021/12/26 01:44:40;;;;;;;;;;;22.50;45.20;;;;;;682312;29;1461;-83
2021/12/26 01:45:01;;;;;;;;;;;22.50;45.10;;;;;;683067;28;854;-88
2021/12/26 01:45:22;;;;;;;;;;;22.50;45.20;;;;;;683048;29;847;-83
2021/12/26 01:45:42;;;;;;;;;;;22.50;45.10;;;;;;684731;28;942;-87
2021/12/26 01:46:03;;;;;;;;;;;22.50;45.10;;;;;;683158;29;1337;-85
2021/12/26 01:46:25;;;;;;;;;;;22.40;45.20;;;;;;683558;28;1476;-86
2021/12/26 01:46:47;;;;;;;;;;;22.50;45.20;;;;;;685995;28;1200;-89
2021/12/26 01:47:08;;;;;;;;;;;22.50;45.20;;;;;;685421;28;827;-90
2021/12/26 01:47:29;;;;;;;;;;;22.50;45.10;;;;;;683225;29;1443;-88
2021/12/26 01:47:49;;;;;;;;;;;22.40;45.20;;;;;;683196;28;1161;-89
2021/12/26 01:48:10;;;;;;;;;;;22.50;45.00;;;;;;683473;29;1207;-89
2021/12/26 01:48:31;;;;;;;;;;;22.50;45.10;;;;;;683665;28;1201;-88
2021/12/26 01:49:01;;;;;;;;;;;22.50;45.00;;;;;;686057;28;771;-89
2021/12/26 01:49:26;;;;;;;;;;;22.40;45.00;;;;;;686020;28;823;-91
2021/12/26 01:49:47;;;;;;;;;;;22.50;45.10;;;;;;686124;28;803;-88
2021/12/26 01:50:08;;;;;;;;;;;22.50;45.30;;;;;;686238;28;795;-89
2021/12/26 01:50:29;;;;;;;;;;;22.50;45.10;;;;;;685961;28;886;-89
2021/12/26 01:50:51;;;;;;;;;;;22.40;45.00;;;;;;686252;28;1287;-89
2021/12/26 01:51:12;;;;;;;;;;;22.50;45.10;;;;;;686150;28;744;-90
2021/12/26 01:51:32;;;;;;;;;;;22.50;45.20;;;;;;686055;28;1339;-89
2021/12/26 01:51:54;;;;;;;;;;;22.50;45.40;;;;;;686416;28;1232;-89
2021/12/26 01:52:15;;;;;;;;;;;22.40;45.10;;;;;;686229;28;897;-88
2021/12/26 01:52:36;;;;;;;;;;;22.40;45.80;;;;;;685963;28;1377;-87
2021/12/26 01:52:57;;;;;;;;;;;22.40;45.50;;;;;;686010;28;989;-88
2021/12/26 01:53:19;;;;;;;;;;;22.50;45.20;;;;;;688719;28;1192;-86
2021/12/26 01:53:40;;;;;;;;;;;22.40;45.10;;;;;;686082;28;1534;-91
2021/12/26 01:54:06;;;;;;;;;;;22.50;45.80;;;;;;686026;28;874;-89
2021/12/26 01:54:48;;;;;;;;;;;22.40;45.40;;;;;;684638;28;1426;-89
2021/12/26 01:55:23;;;;;;;;;;;22.40;45.00;;;;;;682093;28;1350;-91
2021/12/26 01:55:46;;;;;;;;;;;22.40;45.10;;;;;;680618;29;1213;-90
2021/12/26 01:56:11;;;;;;;;;;;22.40;45.10;;;;;;680818;28;1410;-89
2021/12/26 01:56:32;;;;;;;;;;;22.40;45.10;;;;;;683230;29;1906;-85
2021/12/26 01:56:53;;;;;;;;;;;22.40;45.00;;;;;;683409;28;1225;-90
2021/12/26 01:57:15;;;;;;;;;;;22.40;45.10;;;;;;680743;29;1188;-89
2021/12/26 01:57:36;;;;;;;;;;;22.40;45.00;;;;;;679254;29;835;-90
2021/12/26 01:57:58;;;;;;;;;;;22.40;45.30;;;;;;675658;29;1222;-87
2021/12/26 01:58:20;;;;;;;;;;;22.40;45.20;;;;;;676150;29;880;-89
2021/12/26 01:58:41;;;;;;;;;;;22.40;45.30;;;;;;679106;29;894;-88
2021/12/26 01:59:03;;;;;;;;;;;23.20;45.80;;;;;;681562;29;1325;-89
2021/12/26 01:59:24;;;;;;;;;;;22.40;45.20;;;;;;680542;29;1283;-87
2021/12/26 01:59:46;;;;;;;;;;;22.40;45.20;;;;;;684116;28;1439;-89
2021/12/26 02:00:07;;;;;;;;;;;22.40;45.00;;;;;;685953;28;846;-89
2021/12/26 02:00:27;;;;;;;;;;;22.40;45.10;;;;;;683139;28;1182;-90
2021/12/26 02:00:50;;;;;;;;;;;22.40;45.60;;;;;;683294;28;1257;-88
2021/12/26 02:01:12;;;;;;;;;;;22.40;45.50;;;;;;682600;29;1387;-90
2021/12/26 02:01:32;;;;;;;;;;;22.40;45.20;;;;;;680731;29;1366;-89
2021/12/26 02:01:57;;;;;;;;;;;22.40;45.90;;;;;;680442;29;1523;-90
2021/12/26 02:02:18;;;;;;;;;;;22.40;45.10;;;;;;682123;29;1200;-89
2021/12/26 02:02:38;;;;;;;;;;;22.40;45.20;;;;;;682010;28;1093;-82
2021/12/26 02:02:59;;;;;;;;;;;22.40;45.20;;;;;;681775;29;1224;-85
2021/12/26 02:03:20;;;;;;;;;;;22.40;45.10;;;;;;683321;29;950;-88
2021/12/26 02:03:41;;;;;;;;;;;22.40;45.10;;;;;;681535;29;1270;-90
2021/12/26 02:04:02;;;;;;;;;;;22.40;45.00;;;;;;683296;29;1330;-90
2021/12/26 02:04:26;;;;;;;;;;;22.40;45.20;;;;;;683353;29;725;-91
2021/12/26 02:04:47;;;;;;;;;;;22.40;45.10;;;;;;681786;29;1241;-89
2021/12/26 02:05:07;;;;;;;;;;;22.40;45.20;;;;;;683299;29;854;-90
2021/12/26 02:05:28;;;;;;;;;;;22.40;45.20;;;;;;683100;29;1261;-87
2021/12/26 02:05:48;;;;;;;;;;;22.40;45.20;;;;;;684087;28;1086;-89
2021/12/26 02:06:09;;;;;;;;;;;22.40;45.20;;;;;;686099;28;822;-92
2021/12/26 02:06:30;;;;;;;;;;;22.40;45.30;;;;;;686115;28;1212;-90
2021/12/26 02:06:53;;;;;;;;;;;22.40;45.20;;;;;;685748;28;1203;-87
2021/12/26 02:07:14;;;;;;;;;;;22.40;45.10;;;;;;683251;29;1228;-85
2021/12/26 02:07:34;;;;;;;;;;;22.40;45.40;;;;;;683924;28;1219;-90
2021/12/26 02:07:55;;;;;;;;;;;22.40;45.50;;;;;;686014;28;819;-89
2021/12/26 02:08:16;;;;;;;;;;;22.40;45.20;;;;;;685358;28;1440;-91
2021/12/26 02:08:36;;;;;;;;;;;22.40;45.30;;;;;;683792;28;1476;-91
2021/12/26 02:08:57;;;;;;;;;;;22.40;45.10;;;;;;686123;28;1194;-90
2021/12/26 02:09:19;;;;;;;;;;;22.40;45.10;;;;;;683297;28;1221;-89
2021/12/26 02:09:40;;;;;;;;;;;22.40;45.10;;;;;;680660;29;1245;-92
2021/12/26 02:10:00;;;;;;;;;;;22.40;45.20;;;;;;680538;29;1448;-88
2021/12/26 02:10:21;;;;;;;;;;;22.40;45.80;;;;;;680417;29;1280;-84
2021/12/26 02:10:41;;;;;;;;;;;22.40;45.40;;;;;;677988;29;1303;-86
2021/12/26 02:11:02;;;;;;;;;;;22.40;45.70;;;;;;678288;29;1174;-88